sensor_id;sensor_type;location;lat;lon;timestamp;temperature;humidity
66144;SHT31;52947;50.842;6.084;2024-01-25T00:00:41;8.33;95.35
66144;SHT31;52947;50.842;6.084;2024-01-25T00:03:09;8.34;95.41
66144;SHT31;52947;50.842;6.084;2024-01-25T00:05:37;8.37;95.32
66144;SHT31;52947;50.842;6.084;2024-01-25T00:08:06;8.33;95.34
66144;SHT31;52947;50.842;6.084;2024-01-25T00:10:34;8.33;95.45
66144;SHT31;52947;50.842;6.084;2024-01-25T00:13:03;8.31;95.53
66144;SHT31;52947;50.842;6.084;2024-01-25T00:15:31;8.34;95.53
66144;SHT31;52947;50.842;6.084;2024-01-25T00:18:00;8.31;95.64
66144;SHT31;52947;50.842;6.084;2024-01-25T00:20:28;8.31;95.57
66144;SHT31;52947;50.842;6.084;2024-01-25T00:22:56;8.30;95.53
66144;SHT31;52947;50.842;6.084;2024-01-25T00:25:24;8.30;95.63
66144;SHT31;52947;50.842;6.084;2024-01-25T00:27:52;8.28;95.68
66144;SHT31;52947;50.842;6.084;2024-01-25T00:30:22;8.30;95.65
66144;SHT31;52947;50.842;6.084;2024-01-25T00:32:50;8.25;95.72
66144;SHT31;52947;50.842;6.084;2024-01-25T00:35:18;8.27;95.78
66144;SHT31;52947;50.842;6.084;2024-01-25T00:37:47;8.21;95.89
66144;SHT31;52947;50.842;6.084;2024-01-25T00:40:16;8.20;95.96
66144;SHT31;52947;50.842;6.084;2024-01-25T00:42:45;8.16;96.07
66144;SHT31;52947;50.842;6.084;2024-01-25T00:45:40;8.16;96.07
66144;SHT31;52947;50.842;6.084;2024-01-25T00:48:10;8.18;96.07
66144;SHT31;52947;50.842;6.084;2024-01-25T00:50:39;8.18;96.05
66144;SHT31;52947;50.842;6.084;2024-01-25T00:53:08;8.13;96.10
66144;SHT31;52947;50.842;6.084;2024-01-25T00:55:36;8.10;96.24
66144;SHT31;52947;50.842;6.084;2024-01-25T00:58:05;8.11;96.30
66144;SHT31;52947;50.842;6.084;2024-01-25T01:00:34;8.11;96.21
66144;SHT31;52947;50.842;6.084;2024-01-25T01:03:04;8.08;96.38
66144;SHT31;52947;50.842;6.084;2024-01-25T01:05:33;8.04;96.46
66144;SHT31;52947;50.842;6.084;2024-01-25T01:08:02;7.94;96.62
66144;SHT31;52947;50.842;6.084;2024-01-25T01:10:30;7.89;96.77
66144;SHT31;52947;50.842;6.084;2024-01-25T01:12:58;7.90;96.83
66144;SHT31;52947;50.842;6.084;2024-01-25T01:15:26;7.91;96.79
66144;SHT31;52947;50.842;6.084;2024-01-25T01:17:54;8.76;97.04
66144;SHT31;52947;50.842;6.084;2024-01-25T01:20:24;9.50;95.50
66144;SHT31;52947;50.842;6.084;2024-01-25T01:22:52;9.97;93.81
66144;SHT31;52947;50.842;6.084;2024-01-25T01:25:20;10.30;92.45
66144;SHT31;52947;50.842;6.084;2024-01-25T01:27:49;10.40;90.18
66144;SHT31;52947;50.842;6.084;2024-01-25T01:30:17;9.62;91.38
66144;SHT31;52947;50.842;6.084;2024-01-25T01:32:45;9.07;92.82
66144;SHT31;52947;50.842;6.084;2024-01-25T01:35:13;8.83;93.75
66144;SHT31;52947;50.842;6.084;2024-01-25T01:37:43;8.54;94.42
66144;SHT31;52947;50.842;6.084;2024-01-25T01:40:11;8.33;95.26
66144;SHT31;52947;50.842;6.084;2024-01-25T01:42:40;8.25;95.61
66144;SHT31;52947;50.842;6.084;2024-01-25T01:45:11;8.10;95.85
66144;SHT31;52947;50.842;6.084;2024-01-25T01:47:40;8.08;96.18
66144;SHT31;52947;50.842;6.084;2024-01-25T01:50:09;7.98;96.38
66144;SHT31;52947;50.842;6.084;2024-01-25T01:52:37;7.91;96.52
66144;SHT31;52947;50.842;6.084;2024-01-25T01:55:08;7.80;96.69
66144;SHT31;52947;50.842;6.084;2024-01-25T01:57:36;7.70;96.83
66144;SHT31;52947;50.842;6.084;2024-01-25T02:00:06;7.66;96.95
66144;SHT31;52947;50.842;6.084;2024-01-25T02:02:38;7.59;97.09
66144;SHT31;52947;50.842;6.084;2024-01-25T02:05:07;7.53;97.34
66144;SHT31;52947;50.842;6.084;2024-01-25T02:07:35;7.45;97.46
66144;SHT31;52947;50.842;6.084;2024-01-25T02:10:07;7.48;97.49
66144;SHT31;52947;50.842;6.084;2024-01-25T02:12:35;7.48;97.43
66144;SHT31;52947;50.842;6.084;2024-01-25T02:15:04;7.39;97.48
66144;SHT31;52947;50.842;6.084;2024-01-25T02:17:33;7.39;97.63
66144;SHT31;52947;50.842;6.084;2024-01-25T02:20:01;7.28;97.53
66144;SHT31;52947;50.842;6.084;2024-01-25T02:22:31;7.26;97.77
66144;SHT31;52947;50.842;6.084;2024-01-25T02:24:59;7.22;97.85
66144;SHT31;52947;50.842;6.084;2024-01-25T02:27:27;7.16;97.92
66144;SHT31;52947;50.842;6.084;2024-01-25T02:29:55;7.14;97.95
66144;SHT31;52947;50.842;6.084;2024-01-25T02:32:23;7.72;98.15
66144;SHT31;52947;50.842;6.084;2024-01-25T02:34:51;8.48;97.95
66144;SHT31;52947;50.842;6.084;2024-01-25T02:37:19;9.03;96.77
66144;SHT31;52947;50.842;6.084;2024-01-25T02:39:49;9.52;95.21
66144;SHT31;52947;50.842;6.084;2024-01-25T02:42:17;9.67;92.55
66144;SHT31;52947;50.842;6.084;2024-01-25T02:44:45;9.97;92.41
66144;SHT31;52947;50.842;6.084;2024-01-25T02:47:13;10.11;91.56
66144;SHT31;52947;50.842;6.084;2024-01-25T02:49:42;9.99;91.74
66144;SHT31;52947;50.842;6.084;2024-01-25T02:52:10;9.24;90.76
66144;SHT31;52947;50.842;6.084;2024-01-25T02:54:38;8.45;93.10
66144;SHT31;52947;50.842;6.084;2024-01-25T02:57:07;8.06;94.13
66144;SHT31;52947;50.842;6.084;2024-01-25T02:59:35;7.73;95.26
66144;SHT31;52947;50.842;6.084;2024-01-25T03:02:04;7.42;96.33
66144;SHT31;52947;50.842;6.084;2024-01-25T03:04:32;7.21;96.86
66144;SHT31;52947;50.842;6.084;2024-01-25T03:07:00;7.05;97.34
66144;SHT31;52947;50.842;6.084;2024-01-25T03:09:28;6.91;97.47
66144;SHT31;52947;50.842;6.084;2024-01-25T03:11:56;6.80;97.65
66144;SHT31;52947;50.842;6.084;2024-01-25T03:14:26;6.74;97.87
66144;SHT31;52947;50.842;6.084;2024-01-25T03:16:54;6.67;98.30
66144;SHT31;52947;50.842;6.084;2024-01-25T03:19:24;6.58;98.26
66144;SHT31;52947;50.842;6.084;2024-01-25T03:21:52;6.52;98.40
66144;SHT31;52947;50.842;6.084;2024-01-25T03:24:21;6.56;98.49
66144;SHT31;52947;50.842;6.084;2024-01-25T03:26:49;6.49;98.54
66144;SHT31;52947;50.842;6.084;2024-01-25T03:29:17;6.47;98.57
66144;SHT31;52947;50.842;6.084;2024-01-25T03:31:47;8.11;99.99
66144;SHT31;52947;50.842;6.084;2024-01-25T03:34:15;8.83;96.39
66144;SHT31;52947;50.842;6.084;2024-01-25T03:36:43;8.33;94.29
66144;SHT31;52947;50.842;6.084;2024-01-25T03:39:11;7.87;94.57
66144;SHT31;52947;50.842;6.084;2024-01-25T03:41:39;7.46;95.25
66144;SHT31;52947;50.842;6.084;2024-01-25T03:44:07;7.16;95.84
66144;SHT31;52947;50.842;6.084;2024-01-25T03:46:35;6.88;96.90
66144;SHT31;52947;50.842;6.084;2024-01-25T03:49:04;6.81;97.37
66144;SHT31;52947;50.842;6.084;2024-01-25T03:51:32;6.69;97.84
66144;SHT31;52947;50.842;6.084;2024-01-25T03:54:00;6.56;98.14
66144;SHT31;52947;50.842;6.084;2024-01-25T03:56:28;6.49;98.24
66144;SHT31;52947;50.842;6.084;2024-01-25T03:58:56;6.42;98.39
66144;SHT31;52947;50.842;6.084;2024-01-25T04:01:24;6.34;98.56
66144;SHT31;52947;50.842;6.084;2024-01-25T04:03:57;6.25;98.71
66144;SHT31;52947;50.842;6.084;2024-01-25T04:06:27;6.11;98.68
66144;SHT31;52947;50.842;6.084;2024-01-25T04:08:55;6.08;99.00
66144;SHT31;52947;50.842;6.084;2024-01-25T04:11:23;5.89;98.77
66144;SHT31;52947;50.842;6.084;2024-01-25T04:13:54;5.89;99.21
66144;SHT31;52947;50.842;6.084;2024-01-25T04:16:22;5.84;99.31
66144;SHT31;52947;50.842;6.084;2024-01-25T04:18:50;5.87;99.66
66144;SHT31;52947;50.842;6.084;2024-01-25T04:21:19;5.87;99.58
66144;SHT31;52947;50.842;6.084;2024-01-25T04:23:48;5.79;99.43
66144;SHT31;52947;50.842;6.084;2024-01-25T04:26:16;5.79;99.72
66144;SHT31;52947;50.842;6.084;2024-01-25T04:28:44;5.77;99.49
66144;SHT31;52947;50.842;6.084;2024-01-25T04:31:12;5.72;99.49
66144;SHT31;52947;50.842;6.084;2024-01-25T04:33:40;5.65;99.54
66144;SHT31;52947;50.842;6.084;2024-01-25T04:36:14;5.68;99.69
66144;SHT31;52947;50.842;6.084;2024-01-25T04:38:42;5.72;99.93
66144;SHT31;52947;50.842;6.084;2024-01-25T04:41:12;5.75;99.80
66144;SHT31;52947;50.842;6.084;2024-01-25T04:43:40;5.79;99.82
66144;SHT31;52947;50.842;6.084;2024-01-25T04:46:09;5.72;99.83
66144;SHT31;52947;50.842;6.084;2024-01-25T04:48:37;5.70;99.73
66144;SHT31;52947;50.842;6.084;2024-01-25T04:51:06;5.74;99.78
66144;SHT31;52947;50.842;6.084;2024-01-25T04:53:35;5.74;99.85
66144;SHT31;52947;50.842;6.084;2024-01-25T04:56:04;5.68;99.92
66144;SHT31;52947;50.842;6.084;2024-01-25T04:58:33;5.58;99.92
66144;SHT31;52947;50.842;6.084;2024-01-25T05:01:01;5.67;99.99
66144;SHT31;52947;50.842;6.084;2024-01-25T05:03:29;5.62;99.99
66144;SHT31;52947;50.842;6.084;2024-01-25T05:05:58;5.55;99.99
66144;SHT31;52947;50.842;6.084;2024-01-25T05:08:26;5.61;99.99
66144;SHT31;52947;50.842;6.084;2024-01-25T05:10:54;5.57;99.99
66144;SHT31;52947;50.842;6.084;2024-01-25T05:13:22;5.62;99.99
66144;SHT31;52947;50.842;6.084;2024-01-25T05:15:51;5.60;99.99
66144;SHT31;52947;50.842;6.084;2024-01-25T05:18:19;5.60;99.99
66144;SHT31;52947;50.842;6.084;2024-01-25T05:20:47;5.60;99.99
66144;SHT31;52947;50.842;6.084;2024-01-25T05:23:15;5.60;99.99
66144;SHT31;52947;50.842;6.084;2024-01-25T05:25:43;5.54;99.99
66144;SHT31;52947;50.842;6.084;2024-01-25T05:28:11;5.47;99.99
66144;SHT31;52947;50.842;6.084;2024-01-25T05:30:39;5.44;99.99
66144;SHT31;52947;50.842;6.084;2024-01-25T05:33:09;5.40;99.99
66144;SHT31;52947;50.842;6.084;2024-01-25T05:35:37;5.40;99.99
66144;SHT31;52947;50.842;6.084;2024-01-25T05:38:07;5.43;99.99
66144;SHT31;52947;50.842;6.084;2024-01-25T05:40:37;5.47;99.99
66144;SHT31;52947;50.842;6.084;2024-01-25T05:43:05;5.50;99.99
66144;SHT31;52947;50.842;6.084;2024-01-25T05:45:33;5.44;99.99
66144;SHT31;52947;50.842;6.084;2024-01-25T05:48:01;5.47;99.99
66144;SHT31;52947;50.842;6.084;2024-01-25T05:50:31;5.36;99.99
66144;SHT31;52947;50.842;6.084;2024-01-25T05:52:59;5.46;99.99
66144;SHT31;52947;50.842;6.084;2024-01-25T05:55:27;5.39;99.99
66144;SHT31;52947;50.842;6.084;2024-01-25T05:57:56;5.44;99.99
66144;SHT31;52947;50.842;6.084;2024-01-25T06:00:24;5.46;99.99
66144;SHT31;52947;50.842;6.084;2024-01-25T06:02:52;5.64;99.99
66144;SHT31;52947;50.842;6.084;2024-01-25T06:05:20;5.51;99.99
66144;SHT31;52947;50.842;6.084;2024-01-25T06:07:50;5.47;99.99
66144;SHT31;52947;50.842;6.084;2024-01-25T06:10:18;5.41;99.99
66144;SHT31;52947;50.842;6.084;2024-01-25T06:12:46;5.37;99.99
66144;SHT31;52947;50.842;6.084;2024-01-25T06:15:14;5.31;99.99
66144;SHT31;52947;50.842;6.084;2024-01-25T06:17:42;5.27;99.99
66144;SHT31;52947;50.842;6.084;2024-01-25T06:20:11;5.29;99.99
66144;SHT31;52947;50.842;6.084;2024-01-25T06:22:39;5.26;99.99
66144;SHT31;52947;50.842;6.084;2024-01-25T06:25:09;5.29;99.99
66144;SHT31;52947;50.842;6.084;2024-01-25T06:27:37;5.27;99.99
66144;SHT31;52947;50.842;6.084;2024-01-25T06:30:06;5.26;99.99
66144;SHT31;52947;50.842;6.084;2024-01-25T06:32:34;5.27;99.99
66144;SHT31;52947;50.842;6.084;2024-01-25T06:35:02;5.20;99.99
66144;SHT31;52947;50.842;6.084;2024-01-25T06:37:31;5.19;99.99
66144;SHT31;52947;50.842;6.084;2024-01-25T06:40:00;5.19;99.99
66144;SHT31;52947;50.842;6.084;2024-01-25T06:42:29;5.16;99.99
66144;SHT31;52947;50.842;6.084;2024-01-25T06:44:57;5.06;99.99
66144;SHT31;52947;50.842;6.084;2024-01-25T06:47:25;4.99;99.99
66144;SHT31;52947;50.842;6.084;2024-01-25T06:49:53;4.99;99.99
66144;SHT31;52947;50.842;6.084;2024-01-25T06:52:21;4.95;99.99
66144;SHT31;52947;50.842;6.084;2024-01-25T06:54:51;4.97;99.99
66144;SHT31;52947;50.842;6.084;2024-01-25T06:57:19;4.90;99.99
66144;SHT31;52947;50.842;6.084;2024-01-25T06:59:48;4.92;99.99
66144;SHT31;52947;50.842;6.084;2024-01-25T07:02:17;4.97;99.99
66144;SHT31;52947;50.842;6.084;2024-01-25T07:04:46;4.90;99.99
66144;SHT31;52947;50.842;6.084;2024-01-25T07:07:14;4.90;99.99
66144;SHT31;52947;50.842;6.084;2024-01-25T07:09:42;4.89;99.99
66144;SHT31;52947;50.842;6.084;2024-01-25T07:12:11;4.95;99.99
66144;SHT31;52947;50.842;6.084;2024-01-25T07:14:39;4.80;99.99
66144;SHT31;52947;50.842;6.084;2024-01-25T07:17:08;4.93;99.99
66144;SHT31;52947;50.842;6.084;2024-01-25T07:19:36;5.00;99.99
66144;SHT31;52947;50.842;6.084;2024-01-25T07:22:04;4.96;99.99
66144;SHT31;52947;50.842;6.084;2024-01-25T07:24:33;4.86;99.99
66144;SHT31;52947;50.842;6.084;2024-01-25T07:27:01;4.83;99.99
66144;SHT31;52947;50.842;6.084;2024-01-25T07:29:29;4.93;99.99
66144;SHT31;52947;50.842;6.084;2024-01-25T07:31:57;5.00;99.99
66144;SHT31;52947;50.842;6.084;2024-01-25T07:34:26;5.00;99.99
66144;SHT31;52947;50.842;6.084;2024-01-25T07:36:54;4.99;99.99
66144;SHT31;52947;50.842;6.084;2024-01-25T07:39:23;4.95;99.99
66144;SHT31;52947;50.842;6.084;2024-01-25T07:41:51;4.83;99.99
66144;SHT31;52947;50.842;6.084;2024-01-25T07:44:19;4.92;99.99
66144;SHT31;52947;50.842;6.084;2024-01-25T07:46:47;5.03;99.99
66144;SHT31;52947;50.842;6.084;2024-01-25T07:49:15;5.07;99.99
66144;SHT31;52947;50.842;6.084;2024-01-25T07:51:45;5.23;99.99
66144;SHT31;52947;50.842;6.084;2024-01-25T07:54:14;5.31;99.99
66144;SHT31;52947;50.842;6.084;2024-01-25T07:56:42;5.40;99.99
66144;SHT31;52947;50.842;6.084;2024-01-25T07:59:10;5.60;99.99
66144;SHT31;52947;50.842;6.084;2024-01-25T08:01:38;5.72;99.99
66144;SHT31;52947;50.842;6.084;2024-01-25T08:04:06;5.79;99.90
66144;SHT31;52947;50.842;6.084;2024-01-25T08:06:34;5.92;99.78
66144;SHT31;52947;50.842;6.084;2024-01-25T08:09:04;5.97;99.84
66144;SHT31;52947;50.842;6.084;2024-01-25T08:11:32;6.03;99.71
66144;SHT31;52947;50.842;6.084;2024-01-25T08:14:00;6.11;99.67
66144;SHT31;52947;50.842;6.084;2024-01-25T08:16:30;6.15;99.53
66144;SHT31;52947;50.842;6.084;2024-01-25T08:18:58;6.18;99.53
66144;SHT31;52947;50.842;6.084;2024-01-25T08:21:27;6.19;99.47
66144;SHT31;52947;50.842;6.084;2024-01-25T08:23:55;6.16;99.64
66144;SHT31;52947;50.842;6.084;2024-01-25T08:26:24;6.26;99.64
66144;SHT31;52947;50.842;6.084;2024-01-25T08:28:52;6.23;99.57
66144;SHT31;52947;50.842;6.084;2024-01-25T08:31:20;7.00;99.99
66144;SHT31;52947;50.842;6.084;2024-01-25T08:33:48;7.38;99.74
66144;SHT31;52947;50.842;6.084;2024-01-25T08:36:17;7.51;98.67
66144;SHT31;52947;50.842;6.084;2024-01-25T08:38:45;7.73;97.85
66144;SHT31;52947;50.842;6.084;2024-01-25T08:41:13;7.98;98.03
66144;SHT31;52947;50.842;6.084;2024-01-25T08:43:44;8.01;96.05
66144;SHT31;52947;50.842;6.084;2024-01-25T08:46:13;8.03;96.18
66144;SHT31;52947;50.842;6.084;2024-01-25T08:48:41;8.31;96.33
66144;SHT31;52947;50.842;6.084;2024-01-25T08:51:10;8.52;95.59
66144;SHT31;52947;50.842;6.084;2024-01-25T08:53:38;8.31;96.42
66144;SHT31;52947;50.842;6.084;2024-01-25T08:56:06;8.69;95.01
66144;SHT31;52947;50.842;6.084;2024-01-25T08:58:34;8.68;96.03
66144;SHT31;52947;50.842;6.084;2024-01-25T09:01:03;9.00;94.01
66144;SHT31;52947;50.842;6.084;2024-01-25T09:03:32;9.00;92.32
66144;SHT31;52947;50.842;6.084;2024-01-25T09:06:00;9.31;91.54
66144;SHT31;52947;50.842;6.084;2024-01-25T09:08:32;9.61;91.28
66144;SHT31;52947;50.842;6.084;2024-01-25T09:11:01;9.92;89.76
66144;SHT31;52947;50.842;6.084;2024-01-25T09:13:29;10.18;89.60
66144;SHT31;52947;50.842;6.084;2024-01-25T09:16:11;10.23;88.64
66144;SHT31;52947;50.842;6.084;2024-01-25T09:18:40;10.30;89.54
66144;SHT31;52947;50.842;6.084;2024-01-25T09:21:08;10.42;87.15
66144;SHT31;52947;50.842;6.084;2024-01-25T09:23:36;10.11;88.16
66144;SHT31;52947;50.842;6.084;2024-01-25T09:26:04;10.08;88.62
66144;SHT31;52947;50.842;6.084;2024-01-25T09:28:32;10.36;86.97
66144;SHT31;52947;50.842;6.084;2024-01-25T09:31:00;10.39;87.56
66144;SHT31;52947;50.842;6.084;2024-01-25T09:33:32;10.66;86.43
66144;SHT31;52947;50.842;6.084;2024-01-25T09:36:01;10.94;86.63
66144;SHT31;52947;50.842;6.084;2024-01-25T09:38:29;11.04;86.51
66144;SHT31;52947;50.842;6.084;2024-01-25T09:40:57;11.06;85.35
66144;SHT31;52947;50.842;6.084;2024-01-25T09:43:27;11.17;85.04
66144;SHT31;52947;50.842;6.084;2024-01-25T09:45:55;11.68;84.24
66144;SHT31;52947;50.842;6.084;2024-01-25T09:48:23;11.78;83.00
66144;SHT31;52947;50.842;6.084;2024-01-25T09:50:55;12.07;83.02
66144;SHT31;52947;50.842;6.084;2024-01-25T09:53:24;12.53;81.64
66144;SHT31;52947;50.842;6.084;2024-01-25T09:55:57;12.82;79.91
66144;SHT31;52947;50.842;6.084;2024-01-25T09:58:31;13.36;79.10
66144;SHT31;52947;50.842;6.084;2024-01-25T10:01:02;13.59;77.04
66144;SHT31;52947;50.842;6.084;2024-01-25T10:03:31;13.80;77.26
66144;SHT31;52947;50.842;6.084;2024-01-25T10:06:00;13.66;76.79
66144;SHT31;52947;50.842;6.084;2024-01-25T10:08:31;13.63;76.47
66144;SHT31;52947;50.842;6.084;2024-01-25T10:10:59;12.81;78.74
66144;SHT31;52947;50.842;6.084;2024-01-25T10:13:27;12.88;79.64
66144;SHT31;52947;50.842;6.084;2024-01-25T10:15:56;12.92;78.52
66144;SHT31;52947;50.842;6.084;2024-01-25T10:18:25;12.38;79.02
66144;SHT31;52947;50.842;6.084;2024-01-25T10:20:57;12.33;80.28
66144;SHT31;52947;50.842;6.084;2024-01-25T10:23:29;12.10;80.46
66144;SHT31;52947;50.842;6.084;2024-01-25T10:25:58;11.62;80.80
66144;SHT31;52947;50.842;6.084;2024-01-25T10:28:27;11.54;81.46
66144;SHT31;52947;50.842;6.084;2024-01-25T10:31:00;11.03;82.02
66144;SHT31;52947;50.842;6.084;2024-01-25T10:33:29;11.14;82.96
66144;SHT31;52947;50.842;6.084;2024-01-25T10:35:58;11.22;82.40
66144;SHT31;52947;50.842;6.084;2024-01-25T10:38:32;11.72;81.44
66144;SHT31;52947;50.842;6.084;2024-01-25T10:41:04;12.20;79.54
66144;SHT31;52947;50.842;6.084;2024-01-25T10:43:33;12.48;79.20
66144;SHT31;52947;50.842;6.084;2024-01-25T10:46:01;12.61;78.55
66144;SHT31;52947;50.842;6.084;2024-01-25T10:48:31;12.53;78.18
66144;SHT31;52947;50.842;6.084;2024-01-25T10:51:01;12.34;80.22
66144;SHT31;52947;50.842;6.084;2024-01-25T10:53:33;12.17;79.43
66144;SHT31;52947;50.842;6.084;2024-01-25T10:56:02;12.02;79.66
66144;SHT31;52947;50.842;6.084;2024-01-25T10:58:31;11.86;79.91
66144;SHT31;52947;50.842;6.084;2024-01-25T11:01:07;11.66;80.36
66144;SHT31;52947;50.842;6.084;2024-01-25T11:03:42;11.51;81.04
66144;SHT31;52947;50.842;6.084;2024-01-25T11:06:11;11.27;81.82
66144;SHT31;52947;50.842;6.084;2024-01-25T11:08:41;11.38;81.67
66144;SHT31;52947;50.842;6.084;2024-01-25T11:11:11;11.79;81.91
66144;SHT31;52947;50.842;6.084;2024-01-25T11:13:41;12.20;80.48
66144;SHT31;52947;50.842;6.084;2024-01-25T11:16:14;12.13;79.83
66144;SHT31;52947;50.842;6.084;2024-01-25T11:18:49;11.78;80.24
66144;SHT31;52947;50.842;6.084;2024-01-25T11:21:28;11.62;80.45
66144;SHT31;52947;50.842;6.084;2024-01-25T11:24:17;11.63;80.70
66144;SHT31;52947;50.842;6.084;2024-01-25T11:26:47;11.83;80.79
66144;SHT31;52947;50.842;6.084;2024-01-25T11:29:16;12.02;79.82
66144;SHT31;52947;50.842;6.084;2024-01-25T11:31:44;12.44;79.39
66144;SHT31;52947;50.842;6.084;2024-01-25T11:34:13;12.55;78.55
66144;SHT31;52947;50.842;6.084;2024-01-25T11:36:43;12.85;77.88
66144;SHT31;52947;50.842;6.084;2024-01-25T11:39:11;12.92;78.17
66144;SHT31;52947;50.842;6.084;2024-01-25T11:41:42;12.78;77.56
66144;SHT31;52947;50.842;6.084;2024-01-25T11:44:10;13.01;76.56
66144;SHT31;52947;50.842;6.084;2024-01-25T11:46:39;12.63;76.95
66144;SHT31;52947;50.842;6.084;2024-01-25T11:49:07;12.91;77.41
66144;SHT31;52947;50.842;6.084;2024-01-25T11:51:35;12.87;77.04
66144;SHT31;52947;50.842;6.084;2024-01-25T11:54:03;12.77;76.47
66144;SHT31;52947;50.842;6.084;2024-01-25T11:56:34;12.99;77.22
66144;SHT31;52947;50.842;6.084;2024-01-25T11:59:07;13.26;76.70
66144;SHT31;52947;50.842;6.084;2024-01-25T12:01:35;13.35;74.91
66144;SHT31;52947;50.842;6.084;2024-01-25T12:04:04;13.30;75.97
66144;SHT31;52947;50.842;6.084;2024-01-25T12:06:34;13.49;75.33
66144;SHT31;52947;50.842;6.084;2024-01-25T12:09:07;13.35;75.60
66144;SHT31;52947;50.842;6.084;2024-01-25T12:11:36;12.92;76.55
66144;SHT31;52947;50.842;6.084;2024-01-25T12:14:07;12.67;77.06
66144;SHT31;52947;50.842;6.084;2024-01-25T12:16:35;12.51;77.90
66144;SHT31;52947;50.842;6.084;2024-01-25T12:19:05;12.69;77.08
66144;SHT31;52947;50.842;6.084;2024-01-25T12:21:33;12.45;77.45
66144;SHT31;52947;50.842;6.084;2024-01-25T12:24:03;12.41;77.70
66144;SHT31;52947;50.842;6.084;2024-01-25T12:26:34;12.43;77.78
66144;SHT31;52947;50.842;6.084;2024-01-25T12:29:02;12.26;78.62
66144;SHT31;52947;50.842;6.084;2024-01-25T12:31:32;12.29;78.48
66144;SHT31;52947;50.842;6.084;2024-01-25T12:34:00;12.29;78.71
66144;SHT31;52947;50.842;6.084;2024-01-25T12:36:29;12.26;77.54
66144;SHT31;52947;50.842;6.084;2024-01-25T12:38:57;12.09;78.20
66144;SHT31;52947;50.842;6.084;2024-01-25T12:41:28;12.40;79.10
66144;SHT31;52947;50.842;6.084;2024-01-25T12:43:57;12.36;78.47
66144;SHT31;52947;50.842;6.084;2024-01-25T12:46:26;12.20;78.57
66144;SHT31;52947;50.842;6.084;2024-01-25T12:48:56;12.20;79.04
66144;SHT31;52947;50.842;6.084;2024-01-25T12:51:25;12.06;78.62
66144;SHT31;52947;50.842;6.084;2024-01-25T12:53:54;12.13;78.58
66144;SHT31;52947;50.842;6.084;2024-01-25T12:56:22;12.24;78.22
66144;SHT31;52947;50.842;6.084;2024-01-25T12:58:50;12.27;78.65
66144;SHT31;52947;50.842;6.084;2024-01-25T13:01:19;12.13;78.61
66144;SHT31;52947;50.842;6.084;2024-01-25T13:03:47;12.07;78.95
66144;SHT31;52947;50.842;6.084;2024-01-25T13:06:17;11.97;79.72
66144;SHT31;52947;50.842;6.084;2024-01-25T13:08:45;11.89;79.46
66144;SHT31;52947;50.842;6.084;2024-01-25T13:11:13;11.63;79.71
66144;SHT31;52947;50.842;6.084;2024-01-25T13:13:41;11.48;79.94
66144;SHT31;52947;50.842;6.084;2024-01-25T13:16:12;11.38;80.63
66144;SHT31;52947;50.842;6.084;2024-01-25T13:18:39;11.38;80.96
66144;SHT31;52947;50.842;6.084;2024-01-25T13:21:08;11.27;80.87
66144;SHT31;52947;50.842;6.084;2024-01-25T13:23:37;11.20;81.15
66144;SHT31;52947;50.842;6.084;2024-01-25T13:26:06;11.21;81.64
66144;SHT31;52947;50.842;6.084;2024-01-25T13:28:33;11.30;81.27
66144;SHT31;52947;50.842;6.084;2024-01-25T13:31:01;11.32;81.57
66144;SHT31;52947;50.842;6.084;2024-01-25T13:33:30;11.25;81.10
66144;SHT31;52947;50.842;6.084;2024-01-25T13:35:58;11.31;81.30
66144;SHT31;52947;50.842;6.084;2024-01-25T13:38:26;11.27;81.17
66144;SHT31;52947;50.842;6.084;2024-01-25T13:40:55;11.22;81.56
66144;SHT31;52947;50.842;6.084;2024-01-25T13:43:24;11.32;81.21
66144;SHT31;52947;50.842;6.084;2024-01-25T13:45:52;11.27;81.18
66144;SHT31;52947;50.842;6.084;2024-01-25T13:48:20;11.36;81.56
66144;SHT31;52947;50.842;6.084;2024-01-25T13:50:48;11.31;81.90
66144;SHT31;52947;50.842;6.084;2024-01-25T13:53:16;11.48;81.64
66144;SHT31;52947;50.842;6.084;2024-01-25T13:55:45;11.43;81.09
66144;SHT31;52947;50.842;6.084;2024-01-25T13:58:14;11.34;81.49
66144;SHT31;52947;50.842;6.084;2024-01-25T14:00:42;11.25;81.67
66144;SHT31;52947;50.842;6.084;2024-01-25T14:03:10;11.20;81.75
66144;SHT31;52947;50.842;6.084;2024-01-25T14:05:38;11.06;82.04
66144;SHT31;52947;50.842;6.084;2024-01-25T14:08:07;11.08;82.20
66144;SHT31;52947;50.842;6.084;2024-01-25T14:10:35;11.04;82.84
66144;SHT31;52947;50.842;6.084;2024-01-25T14:13:03;10.94;83.27
66144;SHT31;52947;50.842;6.084;2024-01-25T14:15:33;10.91;83.86
66144;SHT31;52947;50.842;6.084;2024-01-25T14:18:01;10.84;84.60
66144;SHT31;52947;50.842;6.084;2024-01-25T14:20:29;10.83;85.43
66144;SHT31;52947;50.842;6.084;2024-01-25T14:22:57;10.80;85.86
66144;SHT31;52947;50.842;6.084;2024-01-25T14:25:26;10.80;85.89
66144;SHT31;52947;50.842;6.084;2024-01-25T14:27:54;10.76;86.26
66144;SHT31;52947;50.842;6.084;2024-01-25T14:30:25;10.79;87.13
66144;SHT31;52947;50.842;6.084;2024-01-25T14:32:55;10.48;89.41
66144;SHT31;52947;50.842;6.084;2024-01-25T14:35:24;9.98;92.10
66144;SHT31;52947;50.842;6.084;2024-01-25T14:37:55;9.60;93.65
66144;SHT31;52947;50.842;6.084;2024-01-25T14:40:24;9.36;94.82
66144;SHT31;52947;50.842;6.084;2024-01-25T14:43:12;9.20;95.55
66144;SHT31;52947;50.842;6.084;2024-01-25T14:45:40;9.05;96.19
66144;SHT31;52947;50.842;6.084;2024-01-25T14:48:09;8.97;96.43
66144;SHT31;52947;50.842;6.084;2024-01-25T14:50:38;8.96;96.56
66144;SHT31;52947;50.842;6.084;2024-01-25T14:53:06;8.90;96.71
66144;SHT31;52947;50.842;6.084;2024-01-25T14:55:34;8.90;96.78
66144;SHT31;52947;50.842;6.084;2024-01-25T14:58:02;8.79;97.01
66144;SHT31;52947;50.842;6.084;2024-01-25T15:00:30;8.79;96.93
66144;SHT31;52947;50.842;6.084;2024-01-25T15:02:59;8.86;97.24
66144;SHT31;52947;50.842;6.084;2024-01-25T15:05:28;8.89;97.16
66144;SHT31;52947;50.842;6.084;2024-01-25T15:07:56;8.86;97.17
66144;SHT31;52947;50.842;6.084;2024-01-25T15:10:24;8.79;97.16
66144;SHT31;52947;50.842;6.084;2024-01-25T15:12:52;8.75;97.25
66144;SHT31;52947;50.842;6.084;2024-01-25T15:15:21;8.79;97.46
66144;SHT31;52947;50.842;6.084;2024-01-25T15:17:51;8.73;97.44
66144;SHT31;52947;50.842;6.084;2024-01-25T15:20:20;8.75;97.59
66144;SHT31;52947;50.842;6.084;2024-01-25T15:22:50;8.73;97.43
66144;SHT31;52947;50.842;6.084;2024-01-25T15:25:18;8.71;97.58
66144;SHT31;52947;50.842;6.084;2024-01-25T15:27:46;8.71;97.70
66144;SHT31;52947;50.842;6.084;2024-01-25T15:30:16;8.66;97.69
66144;SHT31;52947;50.842;6.084;2024-01-25T15:32:44;8.71;97.70
66144;SHT31;52947;50.842;6.084;2024-01-25T15:35:14;8.62;97.73
66144;SHT31;52947;50.842;6.084;2024-01-25T15:37:42;8.72;97.92
66144;SHT31;52947;50.842;6.084;2024-01-25T15:40:12;8.72;97.80
66144;SHT31;52947;50.842;6.084;2024-01-25T15:42:46;8.73;97.74
66144;SHT31;52947;50.842;6.084;2024-01-25T15:45:19;8.68;97.80
66144;SHT31;52947;50.842;6.084;2024-01-25T15:47:47;8.69;97.97
66144;SHT31;52947;50.842;6.084;2024-01-25T15:50:15;8.66;98.01